createdAt,value
2017-05-29T05:27:16.831Z,4.18
2017-05-29T05:28:16.952Z,4.05
2017-05-29T05:29:17.977Z,3.68
2017-05-29T05:30:18.424Z,3.38
2017-05-29T05:31:19.634Z,3.64
2017-05-29T05:34:13.056Z,3.38
2017-05-29T05:35:14.243Z,3.15
2017-05-29T05:36:14.588Z,3.12
2017-05-29T05:37:15.593Z,3.23
2017-05-29T05:38:15.812Z,3.62
2017-05-29T05:39:16.013Z,3.27
2017-05-29T05:40:16.272Z,3.00
2017-05-29T05:41:17.517Z,3.35
2017-05-29T05:42:17.740Z,3.23
2017-05-29T05:43:19.383Z,2.87
2017-05-29T05:44:19.860Z,3.25
2017-05-29T05:45:20.229Z,2.48
2017-05-29T05:46:20.486Z,3.10
2017-05-29T05:47:22.386Z,2.70
2017-05-29T05:48:23.300Z,3.02
2017-05-29T05:49:23.560Z,2.82
2017-05-29T05:50:24.962Z,3.42
2017-05-29T05:51:25.187Z,3.05
2017-05-29T05:52:26.230Z,2.92
2017-05-29T05:53:27.272Z,3.98
2017-05-29T05:54:28.462Z,3.52
2017-05-29T05:55:28.873Z,2.77
2017-05-29T05:56:29.298Z,2.55
2017-05-29T05:57:31.324Z,2.93
2017-05-29T05:58:32.291Z,3.03
2017-05-29T05:59:33.545Z,2.93
2017-05-29T06:00:33.902Z,2.97
2017-05-29T06:01:34.978Z,2.77
2017-05-29T06:12:16.789Z,3.60
2017-05-29T06:13:17.073Z,3.22
2017-05-29T06:14:17.395Z,3.35
2017-05-29T06:15:18.323Z,3.90
2017-05-29T06:16:18.606Z,3.20
2017-05-29T06:23:30.990Z,4.08
2017-05-29T06:24:31.204Z,4.12
2017-05-29T06:25:31.494Z,3.85
2017-05-29T06:26:31.733Z,4.00
2017-05-29T06:27:32.838Z,3.85
2017-05-29T06:28:34.677Z,4.23
2017-05-29T06:29:34.896Z,4.23
2017-05-29T06:30:36.433Z,3.97
2017-05-29T06:31:36.640Z,4.15
2017-05-29T06:32:37.185Z,4.23
2017-05-29T06:33:38.047Z,4.53
2017-05-29T06:34:39.209Z,4.67
2017-05-29T06:35:39.410Z,3.95
2017-05-29T06:36:39.947Z,3.58
2017-05-29T06:37:40.296Z,3.52
2017-05-29T06:38:41.259Z,3.38
2017-05-29T06:39:41.461Z,3.73
2017-05-29T06:40:41.781Z,4.22
2017-05-29T06:41:41.903Z,3.75
2017-05-29T06:42:42.136Z,4.30
2017-05-29T06:43:42.312Z,3.63
2017-05-29T06:44:42.535Z,3.95
2017-05-29T06:45:42.713Z,3.55
2017-05-29T06:46:43.017Z,3.93
2017-05-29T06:55:35.241Z,3.80
2017-05-29T06:56:35.117Z,4.28
2017-05-29T06:57:35.748Z,4.28
2017-05-29T06:58:35.642Z,4.08
2017-05-29T06:59:35.530Z,3.80
2017-05-29T07:00:36.182Z,3.45
2017-05-29T07:01:36.110Z,3.47
2017-05-29T07:02:36.021Z,3.87
2017-05-29T07:03:57.850Z,4.47
2017-05-29T07:04:58.940Z,3.90
2017-05-29T07:05:59.772Z,3.85
2017-05-29T07:07:00.171Z,3.55
2017-05-29T07:08:00.581Z,4.02
2017-05-29T07:09:01.160Z,3.97
2017-05-29T07:10:01.561Z,3.85
2017-05-29T07:11:01.850Z,3.75
2017-05-29T07:12:02.040Z,3.93
2017-05-29T07:13:02.662Z,3.42
2017-05-29T07:14:03.065Z,3.83
2017-05-29T07:15:03.445Z,3.38
2017-05-29T07:16:03.851Z,3.45
2017-05-29T07:19:01.961Z,3.78
2017-05-29T07:20:03.119Z,3.18
2017-05-29T07:21:03.433Z,3.57
2017-05-29T07:22:03.835Z,3.53
2017-05-29T07:23:04.750Z,3.73
2017-05-29T07:24:05.232Z,3.92
2017-05-29T07:25:05.493Z,3.58
2017-05-29T07:26:06.977Z,3.77
2017-05-29T07:27:08.542Z,3.63
2017-05-29T07:28:08.955Z,3.50
2017-05-29T07:29:09.790Z,3.75
2017-05-29T07:30:10.901Z,3.87
2017-05-29T07:31:11.272Z,4.08
2017-05-29T07:32:11.504Z,4.00
2017-05-29T07:33:12.059Z,3.38
2017-05-29T07:34:12.447Z,3.60
2017-05-29T07:35:12.841Z,4.08
2017-05-29T07:36:13.154Z,3.57
2017-05-29T07:37:13.469Z,3.98
2017-05-29T07:38:13.821Z,3.75
2017-05-29T07:39:14.157Z,3.42
2017-05-29T07:40:15.130Z,4.08
2017-05-29T07:41:15.383Z,3.70
2017-05-29T07:42:15.719Z,3.90
2017-05-29T07:43:16.854Z,3.70
2017-05-29T07:44:17.820Z,3.77
2017-05-29T07:45:18.107Z,3.65
2017-05-29T07:46:18.475Z,3.88
2017-05-29T07:47:18.927Z,4.25
2017-05-29T07:48:20.388Z,3.63
2017-05-29T07:49:21.410Z,3.82
2017-05-29T07:50:22.499Z,3.55
2017-05-29T07:51:22.899Z,3.67
2017-05-29T07:52:23.288Z,3.93
2017-05-29T07:53:23.658Z,3.77
2017-05-29T07:54:24.002Z,3.43
2017-05-29T07:55:26.307Z,3.92
2017-05-29T07:56:26.657Z,4.02
2017-05-29T07:57:27.013Z,3.35
2017-05-29T07:58:27.474Z,4.02
2017-05-29T07:59:28.596Z,4.13
2017-05-29T08:00:29.088Z,4.03
2017-05-29T08:01:29.501Z,4.02
2017-05-29T08:04:22.728Z,3.32
2017-05-29T08:05:23.842Z,3.25
2017-05-29T08:06:24.958Z,3.28
2017-05-29T08:07:26.204Z,2.87
2017-05-29T08:08:26.585Z,3.70
2017-05-29T08:09:26.904Z,3.12
2017-05-29T08:10:27.262Z,4.72
2017-05-29T08:11:27.552Z,3.87
2017-05-29T08:12:27.899Z,4.12
2017-05-29T08:13:29.151Z,3.43
2017-05-29T08:14:30.423Z,4.07
2017-05-29T08:15:30.928Z,3.80
2017-05-29T08:16:32.612Z,3.92
2017-05-29T08:17:32.914Z,3.93
2017-05-29T08:18:33.248Z,4.17
2017-05-29T08:19:33.508Z,3.28
2017-05-29T08:20:33.811Z,3.27
2017-05-29T08:21:38.014Z,3.80
2017-05-29T08:22:39.090Z,3.05
2017-05-29T08:23:39.428Z,3.68
2017-05-29T08:24:39.848Z,3.13
2017-05-29T08:25:41.114Z,3.18
2017-05-29T08:26:41.505Z,3.15
2017-05-29T08:27:42.551Z,3.68
2017-05-29T08:28:43.652Z,3.80
2017-05-29T08:29:44.091Z,2.73
2017-05-29T08:30:45.221Z,3.28
2017-05-29T08:31:46.366Z,3.07
2017-05-29T08:42:46.052Z,3.38
2017-05-29T08:43:46.450Z,3.27
2017-05-29T08:44:47.510Z,3.15
2017-05-29T08:45:47.926Z,3.35
2017-05-29T08:46:48.274Z,3.40
2017-05-29T08:54:01.157Z,3.23
2017-05-29T08:55:02.390Z,3.00
2017-05-29T08:56:03.581Z,2.98
2017-05-29T08:57:04.071Z,2.60
2017-05-29T08:58:04.485Z,2.57
2017-05-29T08:59:04.816Z,2.85
2017-05-29T09:00:05.317Z,2.88
2017-05-29T09:01:05.694Z,2.53
2017-05-29T09:02:06.268Z,2.93
2017-05-29T09:03:06.662Z,2.93
2017-05-29T09:04:07.111Z,3.23
2017-05-29T09:05:07.518Z,2.78
2017-05-29T09:06:07.958Z,2.72
2017-05-29T09:07:08.369Z,2.87
2017-05-29T09:08:08.739Z,2.68
2017-05-29T09:09:09.145Z,3.30
2017-05-29T09:10:09.608Z,2.85
2017-05-29T09:11:10.207Z,2.37
2017-05-29T09:12:10.580Z,2.28
2017-05-29T09:13:11.582Z,2.15
2017-05-29T09:14:11.910Z,2.40
2017-05-29T09:15:12.433Z,2.32
2017-05-29T09:16:13.561Z,2.28
2017-05-29T09:17:13.858Z,2.08
2017-05-29T09:18:14.428Z,2.30
2017-05-29T09:19:14.825Z,2.47
2017-05-29T09:20:15.448Z,1.95
2017-05-29T09:21:16.590Z,1.83
2017-05-29T09:22:18.073Z,1.55
2017-05-29T09:23:18.480Z,2.12
2017-05-29T09:24:18.988Z,2.20
2017-05-29T09:25:19.326Z,2.02
2017-05-29T09:26:19.803Z,1.95
2017-05-29T09:27:20.183Z,2.07
2017-05-29T09:28:20.900Z,1.90
2017-05-29T09:29:21.374Z,1.82
2017-05-29T09:30:21.776Z,1.73
2017-05-29T09:31:22.137Z,1.77
2017-05-29T09:32:22.659Z,2.12
2017-05-29T09:33:23.022Z,2.32
2017-05-29T09:34:23.603Z,2.05
2017-05-29T09:35:23.967Z,2.18
2017-05-29T09:36:24.279Z,2.15
2017-05-29T09:37:25.353Z,1.53
2017-05-29T09:38:25.897Z,2.15
2017-05-29T09:39:27.161Z,1.90
2017-05-29T09:40:27.577Z,2.05
2017-05-29T09:41:28.046Z,1.92
2017-05-29T09:42:28.495Z,1.82
2017-05-29T09:43:28.795Z,2.13
2017-05-29T09:44:29.242Z,1.82
2017-05-29T09:45:29.632Z,1.75
2017-05-29T09:54:51.001Z,1.73
2017-05-29T09:55:51.694Z,1.82
2017-05-29T09:56:51.982Z,1.70
2017-05-29T09:57:53.391Z,1.97
2017-05-29T09:58:53.923Z,1.38
2017-05-29T09:59:54.271Z,1.63
2017-05-29T10:00:54.667Z,1.58
2017-05-29T10:01:55.080Z,1.55
2017-05-29T10:02:58.849Z,1.80
2017-05-29T10:03:59.991Z,1.47
2017-05-29T10:05:00.384Z,1.75
2017-05-29T10:06:00.905Z,2.12
2017-05-29T10:07:02.035Z,1.80
2017-05-29T10:08:03.265Z,2.00
2017-05-29T10:09:05.166Z,1.80
2017-05-29T10:10:05.591Z,1.65
2017-05-29T10:11:06.017Z,1.55
2017-05-29T10:12:06.525Z,1.48
2017-05-29T10:13:06.994Z,1.95
2017-05-29T10:14:08.170Z,1.98
2017-05-29T10:15:08.677Z,1.73
2017-05-29T10:16:09.160Z,1.87
2017-05-29T10:17:10.329Z,1.80
2017-05-29T10:26:02.595Z,1.55
2017-05-29T10:27:03.047Z,2.13
2017-05-29T10:28:03.426Z,1.65
2017-05-29T10:29:04.594Z,1.62
2017-05-29T10:30:04.975Z,1.67
2017-05-29T10:31:06.113Z,1.70
2017-05-29T10:32:06.482Z,1.70
2017-05-29T10:43:07.034Z,1.30
2017-05-29T10:44:07.654Z,1.80
2017-05-29T10:45:08.046Z,1.67
2017-05-29T10:46:08.853Z,1.63
2017-05-29T10:47:09.230Z,2.17
2017-05-29T10:57:29.675Z,1.68
2017-05-29T10:58:32.178Z,1.97
2017-05-29T10:59:33.312Z,1.75
2017-05-29T11:00:33.854Z,1.48
2017-05-29T11:01:34.900Z,1.32
2017-05-29T11:02:35.385Z,1.58
2017-05-29T11:05:28.579Z,1.72
2017-05-29T11:06:28.959Z,1.58
2017-05-29T11:07:30.173Z,1.60
2017-05-29T11:08:31.372Z,1.60
2017-05-29T11:09:31.829Z,2.05
2017-05-29T11:10:33.603Z,1.45
2017-05-29T11:11:34.085Z,1.38
2017-05-29T11:12:34.714Z,1.48
2017-05-29T11:13:35.369Z,1.45
2017-05-29T11:14:35.825Z,1.37
2017-05-29T11:15:37.508Z,2.03
2017-05-29T11:16:37.932Z,1.88
2017-05-29T11:17:38.425Z,1.38
2017-05-29T11:22:43.911Z,1.23
2017-05-29T11:23:45.032Z,1.67
2017-05-29T11:24:46.230Z,1.68
2017-05-29T11:25:46.655Z,1.52
2017-05-29T11:26:47.001Z,1.60
2017-05-29T11:27:48.117Z,1.45
2017-05-29T11:28:48.690Z,1.35
2017-05-29T11:29:49.073Z,1.17
2017-05-29T11:30:49.511Z,1.53
2017-05-29T11:31:49.948Z,1.48
2017-05-29T11:32:50.325Z,1.42
2017-05-29T11:35:43.349Z,1.53
2017-05-29T11:36:43.621Z,1.27
2017-05-29T11:37:44.047Z,1.58
2017-05-29T11:38:45.251Z,1.47
2017-05-29T11:39:45.609Z,1.25
2017-05-29T11:40:45.989Z,1.17
2017-05-29T11:41:46.507Z,1.18
2017-05-29T11:42:46.872Z,1.50
2017-05-29T11:43:47.169Z,1.40
2017-05-29T11:44:47.448Z,1.42
2017-05-29T11:45:47.849Z,1.38
2017-05-29T11:46:48.207Z,1.27
2017-05-29T11:47:48.649Z,1.67
2017-05-29T11:48:49.011Z,2.07
2017-05-29T11:49:49.375Z,1.63
2017-05-29T11:50:49.740Z,1.58
2017-05-29T11:51:50.033Z,1.22
2017-05-29T11:52:50.388Z,1.52
2017-05-29T11:53:50.759Z,1.48
2017-05-29T11:54:51.851Z,1.27
2017-05-29T11:55:52.749Z,1.50
2017-05-29T11:56:53.195Z,1.58
2017-05-29T11:57:53.700Z,1.43
2017-05-29T11:58:54.130Z,1.35
2017-05-29T11:59:54.523Z,1.75
2017-05-29T12:00:54.904Z,1.77
2017-05-29T12:05:57.535Z,1.23
2017-05-29T12:06:57.888Z,1.63
2017-05-29T12:07:58.337Z,1.70
2017-05-29T12:08:59.789Z,1.67
2017-05-29T12:10:00.150Z,1.47
2017-05-29T12:11:00.566Z,1.50
2017-05-29T12:12:00.899Z,1.62
2017-05-29T12:13:01.458Z,1.57
2017-05-29T12:14:01.895Z,1.58
2017-05-29T12:15:02.226Z,0.98
2017-05-29T12:16:02.548Z,1.22
2017-05-29T12:17:03.028Z,1.53
2017-05-29T12:18:03.457Z,1.37
2017-05-29T12:19:03.834Z,1.47
2017-05-29T12:20:04.116Z,1.48
2017-05-29T12:21:04.462Z,1.43
2017-05-29T12:22:04.786Z,1.53
2017-05-29T12:23:05.184Z,1.30
2017-05-29T12:24:06.248Z,1.28
2017-05-29T12:25:06.664Z,1.75
2017-05-29T12:26:07.030Z,1.58
2017-05-29T12:27:07.427Z,1.45
2017-05-29T12:28:07.802Z,1.52
2017-05-29T12:36:26.874Z,1.83
2017-05-29T12:37:28.444Z,1.40
2017-05-29T12:38:28.833Z,1.30
2017-05-29T12:39:29.914Z,1.40
2017-05-29T12:40:30.886Z,1.32
2017-05-29T12:41:31.285Z,1.10
2017-05-29T12:42:31.653Z,1.12
2017-05-29T12:43:32.832Z,1.37
2017-05-29T12:44:33.654Z,1.70
2017-05-29T12:45:34.036Z,1.32
2017-05-29T12:46:35.184Z,1.43
2017-05-29T12:47:37.279Z,1.45
2017-05-29T13:11:25.841Z,1.30
2017-05-29T13:12:26.188Z,1.50
2017-05-29T13:13:26.643Z,1.33
2017-05-29T13:14:27.032Z,1.43
2017-05-29T13:15:28.164Z,1.20
2017-05-29T13:16:28.537Z,1.27
2017-05-29T13:17:29.979Z,1.87
2017-05-29T13:20:22.583Z,1.32
2017-05-29T13:21:23.078Z,1.70
2017-05-29T13:22:24.238Z,1.60
2017-05-29T13:23:25.093Z,1.12
2017-05-29T13:24:25.515Z,1.13
2017-05-29T13:25:26.100Z,1.77
2017-05-29T13:26:26.570Z,1.55
2017-05-29T13:27:27.055Z,1.03
2017-05-29T13:28:27.902Z,1.68
2017-05-29T13:29:28.566Z,1.43
2017-05-29T13:30:29.500Z,1.48
2017-05-29T13:31:30.675Z,1.53
2017-05-29T13:32:31.413Z,1.27
2017-05-29T13:39:27.757Z,1.55
2017-05-29T13:40:28.114Z,1.60
2017-05-29T13:41:29.196Z,1.62
2017-05-29T13:42:29.983Z,1.83
2017-05-29T13:43:32.074Z,1.73
2017-05-29T13:44:33.086Z,2.25
2017-05-29T13:45:33.460Z,1.83
2017-05-29T13:46:34.001Z,1.65
2017-05-29T13:47:34.474Z,1.30
2017-05-29T13:48:34.902Z,1.65
2017-05-29T13:49:35.635Z,2.12
2017-05-29T13:50:36.283Z,2.00
2017-05-29T13:51:36.838Z,1.85
2017-05-29T13:52:37.270Z,1.63
2017-05-29T13:53:37.657Z,1.75
2017-05-29T13:54:38.784Z,1.83
2017-05-29T13:55:39.258Z,1.97
2017-05-29T13:56:40.255Z,1.57
2017-05-29T13:57:41.386Z,1.42
2017-05-29T13:58:41.867Z,1.70
2017-05-29T13:59:43.630Z,1.52
2017-05-29T14:00:44.010Z,1.77
2017-05-29T14:01:45.881Z,1.57
2017-05-29T14:02:46.981Z,1.48
2017-05-29T14:05:39.569Z,1.65
2017-05-29T14:06:39.940Z,2.13
2017-05-29T14:07:41.122Z,1.98
2017-05-29T14:08:41.908Z,1.70
2017-05-29T14:09:42.416Z,1.92
2017-05-29T14:10:42.842Z,1.72
2017-05-29T14:11:44.013Z,1.70
2017-05-29T14:12:44.550Z,1.50
2017-05-29T14:13:45.010Z,2.20
2017-05-29T14:14:45.481Z,1.82
2017-05-29T14:15:46.164Z,1.80
2017-05-29T14:16:48.283Z,1.90
2017-05-29T14:17:48.824Z,2.02
2017-05-29T14:18:50.930Z,1.97
2017-05-29T14:19:51.480Z,2.12
2017-05-29T14:20:52.472Z,1.68
2017-05-29T14:21:52.994Z,1.97
2017-05-29T14:22:53.829Z,1.85
2017-05-29T14:23:54.183Z,1.67
2017-05-29T14:24:55.063Z,1.80
2017-05-29T14:25:56.641Z,1.53
2017-05-29T14:26:56.986Z,1.88
2017-05-29T14:27:57.915Z,1.95
2017-05-29T14:28:59.395Z,1.78
2017-05-29T14:30:00.310Z,1.83
2017-05-29T14:31:00.682Z,1.73
2017-05-29T14:32:00.952Z,1.67
2017-05-29T14:33:03.408Z,1.72
2017-05-29T14:40:01.006Z,2.23
2017-05-29T14:41:01.425Z,1.87
2017-05-29T14:42:02.405Z,1.77
2017-05-29T14:43:04.040Z,1.97
2017-05-29T14:44:04.507Z,2.23
2017-05-29T14:45:04.810Z,2.15
2017-05-29T14:46:05.421Z,2.20
2017-05-29T14:47:06.535Z,2.30
2017-05-29T14:48:08.157Z,1.93
2017-05-29T14:51:37.288Z,2.48
2017-05-29T14:52:37.842Z,2.05
2017-05-29T14:53:39.697Z,1.97
2017-05-29T14:54:40.453Z,1.70
2017-05-29T14:55:40.470Z,2.02
2017-05-29T14:56:40.525Z,2.10
2017-05-29T14:57:42.329Z,2.05
2017-05-29T14:58:43.452Z,2.53
2017-05-29T14:59:44.401Z,2.32
2017-05-29T15:00:45.657Z,1.83
2017-05-29T15:01:46.077Z,2.42
2017-05-29T15:02:46.893Z,2.68
2017-05-29T15:03:48.147Z,2.37
2017-05-29T15:05:27.352Z,2.88
2017-05-29T15:06:28.078Z,2.52
2017-05-29T15:07:30.395Z,2.42
2017-05-29T15:08:30.770Z,1.78
2017-05-29T15:09:31.365Z,2.08
2017-05-29T15:10:32.390Z,1.75
2017-05-29T15:11:32.968Z,2.08
2017-05-29T15:12:33.777Z,1.88
2017-05-29T15:13:34.813Z,2.00
2017-05-29T15:14:35.983Z,1.90
2017-05-29T15:15:36.417Z,2.08
2017-05-29T15:16:37.769Z,2.03
2017-05-29T15:17:38.695Z,2.37
2017-05-29T15:18:39.906Z,2.43
2017-05-29T15:27:30.921Z,1.62
2017-05-29T15:28:31.234Z,2.17
2017-05-29T15:29:31.538Z,2.60
2017-05-29T15:30:31.991Z,2.23
2017-05-29T15:31:32.370Z,2.15
2017-05-29T15:32:32.850Z,2.38
2017-05-29T15:33:33.334Z,1.82
2017-05-29T15:43:55.008Z,2.33
2017-05-29T15:44:54.960Z,2.28
2017-05-29T15:46:02.017Z,2.27
2017-05-29T15:47:01.984Z,2.32
2017-05-29T15:48:01.909Z,2.47
2017-05-29T15:49:01.848Z,1.95
2017-05-29T15:50:01.811Z,2.10
2017-05-29T15:51:01.740Z,2.32
2017-05-29T15:52:02.436Z,2.12
2017-05-29T15:53:02.425Z,2.18
2017-05-29T15:54:02.455Z,2.35
2017-05-29T15:55:02.383Z,3.13
2017-05-29T15:56:03.008Z,2.25
2017-05-29T15:57:02.976Z,1.87
2017-05-29T15:58:02.917Z,2.35
2017-05-29T15:59:02.889Z,2.00
2017-05-29T16:00:02.813Z,2.00
2017-05-29T16:01:02.704Z,2.25
2017-05-29T16:02:02.793Z,1.90
2017-05-29T16:03:02.802Z,2.33
2017-05-29T16:18:35.981Z,2.62
2017-05-29T16:38:22.199Z,2.28
2017-05-29T16:39:22.137Z,2.03
2017-05-29T16:40:22.840Z,1.92
2017-05-29T16:41:22.692Z,2.75
2017-05-29T16:42:22.614Z,2.12
2017-05-29T16:43:22.568Z,2.00
2017-05-29T16:44:23.387Z,2.48
2017-05-29T16:45:23.448Z,1.67
2017-05-29T16:46:23.465Z,1.98
2017-05-29T16:47:23.460Z,2.42
2017-05-29T16:48:24.122Z,2.13
2017-05-29T16:49:24.126Z,2.17
2017-05-29T16:50:24.737Z,2.18
2017-05-29T16:51:24.672Z,2.40
2017-05-29T16:52:25.341Z,2.95
2017-05-29T16:53:25.321Z,2.02
2017-05-29T16:54:25.340Z,2.45
2017-05-29T16:55:25.260Z,2.25
2017-05-29T16:56:25.168Z,2.47
2017-05-29T16:57:25.152Z,2.40
2017-05-29T16:58:25.095Z,2.53
2017-05-29T16:59:25.020Z,2.20
2017-05-29T17:00:25.700Z,1.95
2017-05-29T17:01:25.602Z,2.20
2017-05-29T17:02:25.617Z,2.50
2017-05-29T17:03:25.581Z,2.17
2017-05-29T17:14:03.042Z,2.23
2017-05-29T17:15:02.946Z,2.80
2017-05-29T17:16:02.843Z,2.45
2017-05-29T17:17:02.832Z,1.90
2017-05-29T17:18:03.770Z,2.45
2017-05-29T17:19:03.643Z,1.98
2017-05-29T17:21:55.669Z,2.38
2017-05-29T17:22:55.596Z,2.50
2017-05-29T17:23:56.261Z,2.37
2017-05-29T17:24:56.179Z,2.23
2017-05-29T17:25:56.541Z,2.27
2017-05-29T17:26:56.874Z,2.45
2017-05-29T17:27:57.014Z,1.87
2017-05-29T17:28:56.882Z,1.97
2017-05-29T17:29:56.824Z,2.48
2017-05-29T17:30:56.709Z,2.47
2017-05-29T17:31:56.635Z,2.20
2017-05-29T17:32:56.571Z,2.28
2017-05-29T17:33:57.233Z,1.93
2017-05-29T17:58:03.249Z,2.32
2017-05-29T17:59:03.368Z,2.92
2017-05-29T18:00:03.300Z,2.48
2017-05-29T18:01:03.440Z,2.48
2017-05-29T18:02:04.465Z,2.88
2017-05-29T18:03:05.126Z,2.85
2017-05-29T18:04:05.098Z,2.63
2017-05-29T18:20:25.089Z,3.13
2017-05-29T18:21:24.984Z,2.80
2017-05-29T18:22:24.927Z,3.43
2017-05-29T18:23:24.809Z,3.12
2017-05-29T18:24:24.745Z,2.67
2017-05-29T18:25:24.652Z,2.58
2017-05-29T18:26:24.573Z,2.87
2017-05-29T18:27:25.181Z,2.98
2017-05-29T18:28:25.071Z,2.87
2017-05-29T18:29:25.032Z,2.70
2017-05-29T18:30:24.919Z,2.97
2017-05-29T18:31:26.204Z,3.08
2017-05-29T18:32:26.234Z,2.70
2017-05-29T18:33:26.145Z,2.70
2017-05-29T18:34:26.053Z,2.53
2017-05-29T18:41:03.688Z,2.80
2017-05-29T18:42:04.371Z,2.23
2017-05-29T18:43:04.843Z,2.78
2017-05-29T18:44:04.747Z,3.02
2017-05-29T18:45:04.953Z,3.13
2017-05-29T18:46:05.600Z,2.82
2017-05-29T18:47:05.592Z,2.98
2017-05-29T18:48:05.595Z,2.67
2017-05-29T18:49:05.631Z,3.37
2017-05-29T19:00:01.455Z,3.53
